Wilmington, New York
Current Conditions -  °F | °C
As of 12:51 PM on Friday 31 Oct 2014 (Local Time) from KSLK Reporting Station
Few Clouds Few Clouds  
Wind Chill:   Ceiling: Unl
Heat Index:   Visibility: 10mi
Dew Point: -3°   Wind: 0mph
Humidity: 53%   Direction: NA
Pressure: 29.96"   Gusts: NA
Location:  44.39°N, 73.82°W
Report Text: KSLK 311651Z AUTO 00000KT 10SM FEW032 06/M03 A2996 RMK AO2 SLP158 T00611028 $
Loading
Personal Weather Stations






























Interactive Weather Map
Tropical Storm Tracking
New forecast layout! Learn more

10-Day Weather Forecast

Advertisements
Track Severe Weather on mobile